Time;durP1;ratioP1;P1;durP2;ratioP2;P2;SDS_P1;SDS_P2;PMS_P1;PMS_P2;Temp;Humidity;BMP_temperature;BMP_pressure;BME280_temperature;BME280_humidity;BME280_pressure;Samples;Min_cycle;Max_cycle;Signal;HPM_P1;HPM_P2
2023/12/13 00:02:33;;;;;;;5.97;1.60;;;;;;;;;;5086992;28;20062;-67
2023/12/13 00:06:14;;;;;;;3.95;1.40;;;;;;;;;;5078738;28;20033;-69
2023/12/13 00:09:54;;;;;;;5.82;1.70;;;;;;;;;;5086528;28;20052;-67
2023/12/13 00:13:36;;;;;;;8.80;1.98;;;;;;;;;;5085514;28;20048;-66
2023/12/13 00:17:18;;;;;;;3.35;1.40;;;;;;;;;;5084274;28;20044;-67
2023/12/13 00:20:57;;;;;;;5.40;1.60;;;;;;;;;;5085961;28;20078;-68
2023/12/13 00:24:37;;;;;;;7.63;1.58;;;;;;;;;;5082328;28;20079;-67
2023/12/13 00:28:17;;;;;;;5.20;1.50;;;;;;;;;;5076003;28;20070;-65
2023/12/13 00:31:57;;;;;;;5.50;1.33;;;;;;;;;;5084955;28;20040;-67
2023/12/13 00:35:38;;;;;;;10.57;1.88;;;;;;;;;;5060544;28;20108;-65
2023/12/13 00:39:19;;;;;;;4.75;1.63;;;;;;;;;;5081720;28;20364;-67
2023/12/13 00:43:01;;;;;;;6.18;1.75;;;;;;;;;;5084519;28;20080;-64
2023/12/13 00:46:41;;;;;;;9.45;1.80;;;;;;;;;;5084686;28;20089;-67
2023/12/13 00:50:22;;;;;;;5.55;2.00;;;;;;;;;;5085425;28;20063;-67
2023/12/13 00:54:03;;;;;;;8.27;1.90;;;;;;;;;;5080399;28;20098;-65
2023/12/13 00:57:42;;;;;;;7.60;1.83;;;;;;;;;;5079748;28;20044;-67
2023/12/13 01:01:24;;;;;;;7.20;1.75;;;;;;;;;;5077887;28;20488;-67
2023/12/13 01:05:03;;;;;;;6.03;1.95;;;;;;;;;;5076062;28;20083;-66
2023/12/13 01:08:44;;;;;;;4.57;1.77;;;;;;;;;;5081171;28;20053;-67
2023/12/13 01:12:25;;;;;;;5.05;1.73;;;;;;;;;;5083763;28;20044;-67
2023/12/13 01:16:05;;;;;;;4.85;1.52;;;;;;;;;;5079286;28;20139;-66
2023/12/13 01:19:45;;;;;;;4.25;1.58;;;;;;;;;;5076304;28;20407;-66
2023/12/13 01:23:27;;;;;;;3.80;1.65;;;;;;;;;;5089835;28;20050;-66
2023/12/13 01:27:06;;;;;;;5.60;1.50;;;;;;;;;;5080248;28;20071;-65
2023/12/13 01:30:46;;;;;;;4.82;1.95;;;;;;;;;;5082255;28;20442;-66
2023/12/13 01:34:27;;;;;;;4.32;1.70;;;;;;;;;;5076543;27;20204;-66
2023/12/13 01:38:07;;;;;;;4.85;1.50;;;;;;;;;;5082040;28;20055;-66
2023/12/13 01:41:48;;;;;;;5.63;1.70;;;;;;;;;;5081670;28;20306;-66
2023/12/13 01:45:29;;;;;;;4.68;1.48;;;;;;;;;;5082127;28;20488;-67
2023/12/13 01:49:11;;;;;;;4.65;1.50;;;;;;;;;;5082303;28;20055;-66
2023/12/13 01:52:50;;;;;;;4.93;1.50;;;;;;;;;;5081011;28;20043;-67
2023/12/13 01:56:30;;;;;;;4.65;1.70;;;;;;;;;;5086713;28;20411;-66
2023/12/13 02:00:11;;;;;;;4.82;1.92;;;;;;;;;;5086133;28;20051;-65
2023/12/13 02:03:52;;;;;;;6.43;1.75;;;;;;;;;;5080814;28;20113;-66
2023/12/13 02:07:32;;;;;;;7.70;1.90;;;;;;;;;;5091182;28;20395;-66
2023/12/13 02:11:13;;;;;;;3.08;1.38;;;;;;;;;;5089959;28;20090;-66
2023/12/13 02:14:53;;;;;;;3.67;1.52;;;;;;;;;;5075125;28;20150;-65
2023/12/13 02:18:34;;;;;;;3.67;1.63;;;;;;;;;;5086361;28;20444;-66
2023/12/13 02:22:14;;;;;;;4.32;1.40;;;;;;;;;;5077037;28;20278;-67
2023/12/13 02:25:57;;;;;;;5.10;1.73;;;;;;;;;;5081968;28;20102;-66
2023/12/13 02:29:37;;;;;;;9.63;2.78;;;;;;;;;;5083964;28;20046;-65
2023/12/13 02:33:18;;;;;;;3.67;1.58;;;;;;;;;;5084980;28;20051;-67
2023/12/13 02:36:58;;;;;;;4.32;1.60;;;;;;;;;;5084847;28;20043;-66
2023/12/13 02:40:38;;;;;;;3.55;1.65;;;;;;;;;;5077772;28;20109;-67
2023/12/13 02:44:19;;;;;;;4.30;1.58;;;;;;;;;;5080960;28;20128;-68
2023/12/13 02:47:59;;;;;;;3.80;1.70;;;;;;;;;;5084323;28;20503;-68
2023/12/13 02:51:39;;;;;;;3.63;1.60;;;;;;;;;;5087310;28;20082;-66
2023/12/13 02:55:20;;;;;;;3.75;1.70;;;;;;;;;;5079666;28;20212;-65
2023/12/13 02:59:00;;;;;;;3.70;1.75;;;;;;;;;;5085808;28;20039;-67
2023/12/13 03:02:42;;;;;;;3.38;2.20;;;;;;;;;;5080944;28;20043;-67
2023/12/13 03:06:22;;;;;;;3.15;1.67;;;;;;;;;;5082284;28;20048;-66
2023/12/13 03:10:02;;;;;;;3.47;1.63;;;;;;;;;;5082588;28;20047;-65
2023/12/13 03:13:43;;;;;;;2.00;1.50;;;;;;;;;;5079339;28;20043;-68
2023/12/13 03:17:23;;;;;;;4.47;2.08;;;;;;;;;;5082309;28;20558;-66
2023/12/13 03:21:03;;;;;;;4.97;1.42;;;;;;;;;;5089756;28;20040;-66
2023/12/13 03:24:44;;;;;;;2.75;1.75;;;;;;;;;;5080453;28;20040;-69
2023/12/13 03:28:24;;;;;;;2.25;1.50;;;;;;;;;;5080883;28;20503;-66
2023/12/13 03:32:05;;;;;;;3.58;1.77;;;;;;;;;;5075402;28;20044;-66
2023/12/13 03:35:45;;;;;;;5.10;1.80;;;;;;;;;;5085195;28;20495;-68
2023/12/13 03:39:25;;;;;;;4.78;2.13;;;;;;;;;;5085843;28;20059;-67
2023/12/13 03:43:06;;;;;;;3.92;1.90;;;;;;;;;;5084339;28;20143;-67
2023/12/13 03:46:46;;;;;;;5.00;1.50;;;;;;;;;;5074944;28;20190;-66
2023/12/13 03:50:26;;;;;;;6.60;1.55;;;;;;;;;;5096635;28;20050;-67
2023/12/13 03:54:07;;;;;;;5.18;1.60;;;;;;;;;;5081467;28;20102;-67
2023/12/13 03:57:47;;;;;;;2.90;1.42;;;;;;;;;;5083130;28;20051;-64
2023/12/13 04:01:27;;;;;;;3.08;1.35;;;;;;;;;;5091687;28;20235;-66
2023/12/13 04:05:08;;;;;;;2.45;1.25;;;;;;;;;;5077169;28;20052;-66
2023/12/13 04:08:48;;;;;;;2.65;1.50;;;;;;;;;;5080936;28;20316;-66
2023/12/13 04:12:29;;;;;;;2.08;1.17;;;;;;;;;;5084663;28;20059;-65
2023/12/13 04:16:09;;;;;;;4.40;1.50;;;;;;;;;;5077676;28;20063;-65
2023/12/13 04:19:49;;;;;;;2.70;1.27;;;;;;;;;;5075264;28;20117;-67
2023/12/13 04:23:30;;;;;;;2.83;1.25;;;;;;;;;;5079473;28;20048;-66
2023/12/13 04:27:10;;;;;;;3.28;1.73;;;;;;;;;;5082401;28;20127;-67
2023/12/13 04:30:51;;;;;;;2.42;1.00;;;;;;;;;;5080229;28;20063;-65
2023/12/13 04:34:31;;;;;;;2.75;1.17;;;;;;;;;;5080477;28;20136;-67
2023/12/13 04:38:11;;;;;;;2.75;1.30;;;;;;;;;;5081640;28;20046;-66
2023/12/13 04:41:52;;;;;;;2.60;1.10;;;;;;;;;;5086143;28;20403;-67
2023/12/13 04:45:32;;;;;;;5.45;1.27;;;;;;;;;;5078575;28;20075;-65
2023/12/13 04:49:12;;;;;;;2.00;1.00;;;;;;;;;;5081029;28;20049;-65
2023/12/13 04:52:53;;;;;;;3.53;1.23;;;;;;;;;;5080941;28;20055;-64
2023/12/13 04:56:33;;;;;;;2.30;1.30;;;;;;;;;;5088396;28;20043;-65
2023/12/13 05:00:13;;;;;;;5.15;1.25;;;;;;;;;;5092019;28;20063;-66
2023/12/13 05:03:54;;;;;;;1.35;1.02;;;;;;;;;;5086933;28;20123;-65
2023/12/13 05:07:34;;;;;;;2.17;1.20;;;;;;;;;;5089980;28;20131;-68
2023/12/13 05:11:14;;;;;;;2.75;0.93;;;;;;;;;;5089891;28;20044;-65
2023/12/13 05:14:55;;;;;;;1.65;0.90;;;;;;;;;;5081908;28;20040;-66
2023/12/13 05:18:35;;;;;;;2.10;0.82;;;;;;;;;;5081369;28;20128;-67
2023/12/13 05:22:16;;;;;;;3.03;1.02;;;;;;;;;;5081842;28;20601;-67
2023/12/13 05:25:56;;;;;;;2.22;1.10;;;;;;;;;;5082243;28;20109;-67
2023/12/13 05:29:36;;;;;;;0.82;0.77;;;;;;;;;;5085637;28;20136;-66
2023/12/13 05:33:17;;;;;;;1.33;0.75;;;;;;;;;;5083115;28;20052;-66
2023/12/13 05:36:59;;;;;;;1.70;0.77;;;;;;;;;;5090000;28;20098;-66
2023/12/13 05:40:39;;;;;;;1.92;0.80;;;;;;;;;;5094464;28;20118;-66
2023/12/13 05:44:19;;;;;;;1.65;0.90;;;;;;;;;;5082069;28;20560;-69
2023/12/13 05:48:00;;;;;;;1.80;0.98;;;;;;;;;;5085175;28;20040;-66
2023/12/13 05:51:41;;;;;;;1.52;0.90;;;;;;;;;;5077762;28;20039;-66
2023/12/13 05:55:22;;;;;;;1.98;1.00;;;;;;;;;;5080993;28;20082;-66
2023/12/13 05:59:04;;;;;;;1.48;0.65;;;;;;;;;;5086402;28;20048;-67
2023/12/13 06:02:45;;;;;;;3.33;0.90;;;;;;;;;;5085053;28;20121;-67
2023/12/13 06:06:26;;;;;;;2.13;0.68;;;;;;;;;;5078070;28;20075;-67
2023/12/13 06:10:06;;;;;;;1.38;0.80;;;;;;;;;;5085479;28;20067;-66
2023/12/13 06:13:46;;;;;;;2.95;0.93;;;;;;;;;;5084022;28;20123;-66
2023/12/13 06:17:27;;;;;;;2.13;0.73;;;;;;;;;;5081818;28;20131;-67
2023/12/13 06:21:07;;;;;;;2.92;0.88;;;;;;;;;;5081340;28;20499;-65
2023/12/13 06:24:48;;;;;;;1.58;1.05;;;;;;;;;;5086851;28;20055;-66
2023/12/13 06:28:30;;;;;;;1.52;0.65;;;;;;;;;;5086968;28;20044;-67
2023/12/13 06:32:10;;;;;;;3.13;0.70;;;;;;;;;;5095631;28;20048;-65
2023/12/13 06:35:50;;;;;;;1.83;1.00;;;;;;;;;;5095985;28;20047;-66
2023/12/13 06:39:31;;;;;;;0.75;0.63;;;;;;;;;;5075689;28;20411;-67
2023/12/13 06:42:32;;;;;;;1.48;0.80;;;;;;;;;;5089894;28;20052;-68
2023/12/13 06:44:58;;;;;;;3.88;0.80;;;;;;;;;;5065252;28;20048;-67
2023/12/13 06:48:03;;;;;;;1.00;0.70;;;;;;;;;;5082049;28;20101;-67
2023/12/13 06:51:44;;;;;;;1.80;0.70;;;;;;;;;;5090445;28;20040;-66
2023/12/13 06:55:24;;;;;;;1.45;0.52;;;;;;;;;;5078975;28;20210;-66
2023/12/13 06:59:04;;;;;;;0.52;0.50;;;;;;;;;;5078400;28;20066;-64
2023/12/13 07:02:45;;;;;;;2.22;0.90;;;;;;;;;;5083918;28;20052;-66
2023/12/13 07:06:25;;;;;;;5.03;1.40;;;;;;;;;;5085189;28;20075;-67
2023/12/13 07:10:05;;;;;;;4.47;1.90;;;;;;;;;;5076953;28;20048;-66
2023/12/13 07:13:47;;;;;;;5.72;1.80;;;;;;;;;;5078157;28;20047;-63
2023/12/13 07:17:27;;;;;;;6.43;1.80;;;;;;;;;;5076570;28;20048;-66
2023/12/13 07:21:08;;;;;;;4.45;1.50;;;;;;;;;;5081132;28;20055;-66
2023/12/13 07:24:48;;;;;;;4.20;1.20;;;;;;;;;;5070006;28;20055;-65
2023/12/13 07:28:29;;;;;;;1.77;0.75;;;;;;;;;;5078073;28;20151;-69
2023/12/13 07:32:11;;;;;;;8.35;0.90;;;;;;;;;;5070838;28;20058;-66
2023/12/13 07:35:52;;;;;;;4.60;0.80;;;;;;;;;;5072013;28;20407;-63
2023/12/13 07:39:35;;;;;;;1.33;0.60;;;;;;;;;;5071110;28;20048;-65
2023/12/13 07:43:12;;;;;;;6.60;0.65;;;;;;;;;;5082117;28;20113;-63
2023/12/13 07:46:54;;;;;;;3.33;0.60;;;;;;;;;;5076864;28;20209;-71
2023/12/13 07:50:34;;;;;;;1.52;0.60;;;;;;;;;;5084569;28;20534;-62
2023/12/13 07:54:16;;;;;;;3.38;0.70;;;;;;;;;;5083396;28;20039;-64
2023/12/13 07:57:57;;;;;;;3.47;0.60;;;;;;;;;;5082030;28;20058;-65
2023/12/13 08:01:38;;;;;;;2.05;0.73;;;;;;;;;;5080792;28;20160;-65
2023/12/13 08:05:23;;;;;;;6.32;0.90;;;;;;;;;;5080243;28;20050;-66
2023/12/13 08:09:02;;;;;;;2.45;0.50;;;;;;;;;;5084277;28;20491;-68
2023/12/13 08:12:42;;;;;;;3.15;0.80;;;;;;;;;;5078789;28;20167;-68
2023/12/13 08:16:22;;;;;;;2.67;0.73;;;;;;;;;;5082165;28;20051;-68
2023/12/13 08:20:03;;;;;;;7.88;1.10;;;;;;;;;;5072740;28;20048;-66
2023/12/13 08:23:45;;;;;;;5.55;0.70;;;;;;;;;;5080279;28;21211;-69
2023/12/13 08:27:25;;;;;;;3.15;0.65;;;;;;;;;;5082473;28;20368;-64
2023/12/13 08:31:07;;;;;;;4.70;1.10;;;;;;;;;;5086073;28;20051;-66
2023/12/13 08:34:46;;;;;;;4.50;0.80;;;;;;;;;;5082570;28;20552;-67
2023/12/13 08:38:27;;;;;;;5.30;0.82;;;;;;;;;;5089354;28;20112;-65
2023/12/13 08:42:09;;;;;;;3.13;1.40;;;;;;;;;;5080895;28;20098;-66
2023/12/13 08:45:50;;;;;;;3.80;1.13;;;;;;;;;;5082136;28;20067;-65
2023/12/13 08:49:30;;;;;;;1.90;0.93;;;;;;;;;;5085962;28;20089;-66
2023/12/13 08:53:10;;;;;;;1.50;0.98;;;;;;;;;;5078010;28;20048;-68
2023/12/13 08:56:50;;;;;;;6.07;0.90;;;;;;;;;;5081964;28;20047;-67
2023/12/13 09:00:31;;;;;;;1.88;1.20;;;;;;;;;;5082089;28;20094;-65
2023/12/13 09:04:12;;;;;;;5.35;1.13;;;;;;;;;;5087697;28;20119;-67
2023/12/13 09:07:53;;;;;;;3.83;0.98;;;;;;;;;;5079283;28;20177;-65
2023/12/13 09:11:34;;;;;;;3.10;0.77;;;;;;;;;;5079025;28;20048;-67
2023/12/13 09:15:14;;;;;;;1.05;0.60;;;;;;;;;;5073439;28;20059;-66
2023/12/13 09:18:58;;;;;;;1.30;0.95;;;;;;;;;;5091086;28;20046;-66
2023/12/13 09:22:39;;;;;;;4.78;0.70;;;;;;;;;;5090432;28;20036;-64
2023/12/13 09:26:20;;;;;;;5.30;1.00;;;;;;;;;;5083494;28;20143;-65
2023/12/13 09:30:01;;;;;;;4.68;1.30;;;;;;;;;;5077702;28;20052;-66
2023/12/13 09:33:41;;;;;;;1.98;0.70;;;;;;;;;;5081619;28;20415;-66
2023/12/13 09:37:21;;;;;;;6.35;0.95;;;;;;;;;;5086118;28;20039;-66
2023/12/13 09:41:02;;;;;;;4.28;0.90;;;;;;;;;;5084755;28;20048;-66
2023/12/13 09:44:42;;;;;;;2.33;0.90;;;;;;;;;;5083804;28;20045;-66
2023/12/13 09:48:23;;;;;;;3.95;1.05;;;;;;;;;;5095413;28;20123;-66
2023/12/13 09:52:06;;;;;;;1.73;0.57;;;;;;;;;;5087310;28;20040;-66
2023/12/13 09:55:46;;;;;;;2.38;0.75;;;;;;;;;;5085220;28;20540;-65
2023/12/13 09:59:28;;;;;;;6.82;0.98;;;;;;;;;;5079644;28;21029;-66
2023/12/13 10:03:08;;;;;;;1.58;0.80;;;;;;;;;;5085585;28;20052;-66
2023/12/13 10:06:48;;;;;;;3.67;0.90;;;;;;;;;;5075339;28;20131;-66
2023/12/13 10:10:31;;;;;;;2.38;0.80;;;;;;;;;;5086385;28;20076;-65
2023/12/13 10:14:12;;;;;;;5.80;0.88;;;;;;;;;;5080316;28;20197;-64
2023/12/13 10:17:54;;;;;;;5.72;1.10;;;;;;;;;;5089120;28;20448;-67
2023/12/13 10:21:35;;;;;;;4.72;1.00;;;;;;;;;;5080038;28;20076;-66
2023/12/13 10:25:17;;;;;;;3.35;1.00;;;;;;;;;;5082928;28;20422;-66
2023/12/13 10:28:58;;;;;;;1.08;0.70;;;;;;;;;;5079808;27;20060;-66
2023/12/13 10:32:40;;;;;;;2.17;0.70;;;;;;;;;;5072969;28;20081;-67
2023/12/13 10:36:20;;;;;;;3.25;1.00;;;;;;;;;;5082512;28;20059;-67
2023/12/13 10:40:00;;;;;;;3.40;1.08;;;;;;;;;;5075560;28;20044;-66
2023/12/13 10:43:41;;;;;;;3.95;1.27;;;;;;;;;;5084530;28;20381;-68
2023/12/13 10:47:26;;;;;;;3.42;1.40;;;;;;;;;;5102882;28;20047;-66
2023/12/13 10:51:06;;;;;;;5.93;1.50;;;;;;;;;;5091912;28;20092;-67
2023/12/13 10:54:46;;;;;;;6.13;1.45;;;;;;;;;;5078963;28;20465;-67
2023/12/13 10:58:27;;;;;;;5.25;0.93;;;;;;;;;;5088733;28;20090;-67
2023/12/13 11:02:07;;;;;;;2.47;0.95;;;;;;;;;;5087080;28;20079;-65
2023/12/13 11:05:47;;;;;;;2.47;0.82;;;;;;;;;;5085496;27;20104;-67
2023/12/13 11:09:29;;;;;;;3.55;1.00;;;;;;;;;;5088789;28;20163;-66
2023/12/13 11:13:09;;;;;;;8.07;1.17;;;;;;;;;;5082266;28;20045;-67
2023/12/13 11:16:59;;;;;;;2.67;1.08;;;;;;;;;;5088373;28;20444;-65
2023/12/13 11:20:39;;;;;;;7.68;1.20;;;;;;;;;;5088555;28;20052;-66
2023/12/13 11:24:10;;;;;;;4.32;1.17;;;;;;;;;;5087586;28;20209;-68
2023/12/13 11:27:50;;;;;;;5.13;1.40;;;;;;;;;;5084671;28;20090;-68
2023/12/13 11:31:31;;;;;;;3.20;1.08;;;;;;;;;;5082451;28;20052;-68
2023/12/13 11:34:52;;;;;;;3.53;1.00;;;;;;;;;;5084373;28;20103;-66
2023/12/13 11:38:32;;;;;;;8.13;1.00;;;;;;;;;;5093929;28;20056;-66
2023/12/13 11:42:17;;;;;;;6.28;1.20;;;;;;;;;;5084676;28;20055;-67
2023/12/13 11:45:59;;;;;;;6.40;1.60;;;;;;;;;;5086567;28;20044;-66
2023/12/13 11:49:39;;;;;;;4.45;1.10;;;;;;;;;;5082187;28;20447;-66
2023/12/13 11:53:21;;;;;;;4.60;1.00;;;;;;;;;;5093593;28;20044;-66
2023/12/13 11:57:02;;;;;;;2.08;0.77;;;;;;;;;;5092622;28;20101;-65
2023/12/13 12:00:43;;;;;;;3.33;1.00;;;;;;;;;;5090753;28;20051;-69
2023/12/13 12:04:23;;;;;;;3.92;0.90;;;;;;;;;;5087291;28;20732;-65
2023/12/13 12:08:03;;;;;;;4.20;1.00;;;;;;;;;;5095011;28;20425;-66
2023/12/13 12:11:43;;;;;;;3.03;1.00;;;;;;;;;;5089477;28;20073;-67
2023/12/13 12:15:26;;;;;;;3.72;1.10;;;;;;;;;;5095537;27;20506;-65
2023/12/13 12:19:07;;;;;;;3.95;0.80;;;;;;;;;;5099612;28;20055;-67
2023/12/13 12:22:51;;;;;;;4.43;0.98;;;;;;;;;;5091929;27;20043;-73
2023/12/13 12:26:34;;;;;;;6.57;1.50;;;;;;;;;;5084039;28;20051;-68
2023/12/13 12:30:16;;;;;;;4.03;1.00;;;;;;;;;;5093847;28;20066;-68
2023/12/13 12:33:57;;;;;;;4.82;1.35;;;;;;;;;;5085245;28;20036;-67
2023/12/13 12:37:38;;;;;;;6.22;1.40;;;;;;;;;;5089275;28;20048;-69
2023/12/13 12:41:22;;;;;;;3.28;1.30;;;;;;;;;;5084505;28;20113;-70
2023/12/13 12:45:02;;;;;;;7.80;1.85;;;;;;;;;;5082521;28;20075;-68
2023/12/13 12:48:42;;;;;;;10.20;1.83;;;;;;;;;;5090267;28;20036;-65
2023/12/13 12:52:23;;;;;;;7.32;1.45;;;;;;;;;;5081308;28;20048;-64
2023/12/13 12:56:03;;;;;;;6.53;1.52;;;;;;;;;;5080746;28;20059;-65
2023/12/13 12:59:44;;;;;;;4.03;0.95;;;;;;;;;;5085386;28;20568;-67
2023/12/13 13:03:26;;;;;;;4.20;1.30;;;;;;;;;;5089429;28;20052;-66
2023/12/13 13:07:06;;;;;;;9.15;1.33;;;;;;;;;;5083672;28;20126;-67
2023/12/13 13:10:49;;;;;;;12.65;1.55;;;;;;;;;;5090347;28;20055;-69
2023/12/13 13:14:27;;;;;;;6.07;1.88;;;;;;;;;;5086741;28;20040;-65
2023/12/13 13:18:07;;;;;;;5.60;1.50;;;;;;;;;;5088484;28;20565;-69
2023/12/13 13:21:48;;;;;;;4.15;1.50;;;;;;;;;;5080372;28;20131;-66
2023/12/13 13:25:28;;;;;;;4.97;1.33;;;;;;;;;;5081018;28;20154;-67
2023/12/13 13:29:10;;;;;;;2.95;1.75;;;;;;;;;;5088130;28;20414;-65
2023/12/13 13:32:50;;;;;;;4.10;1.88;;;;;;;;;;5080162;28;20055;-65
2023/12/13 13:36:31;;;;;;;7.53;1.58;;;;;;;;;;5087226;28;20047;-66
2023/12/13 13:40:13;;;;;;;6.82;1.50;;;;;;;;;;5079940;28;20194;-66
2023/12/13 13:43:53;;;;;;;3.90;0.77;;;;;;;;;;5087909;28;20040;-71
2023/12/13 13:47:33;;;;;;;7.70;1.40;;;;;;;;;;5086406;28;20432;-67
2023/12/13 13:51:13;;;;;;;4.63;1.00;;;;;;;;;;5081965;27;20123;-69
2023/12/13 13:54:53;;;;;;;5.80;1.02;;;;;;;;;;5091466;28;20072;-65
2023/12/13 13:58:34;;;;;;;4.00;1.20;;;;;;;;;;5096658;28;20087;-66
2023/12/13 14:02:14;;;;;;;4.63;0.88;;;;;;;;;;5089263;28;20078;-67
2023/12/13 14:05:58;;;;;;;5.13;1.10;;;;;;;;;;5090731;28;20399;-68
2023/12/13 14:09:35;;;;;;;4.82;0.85;;;;;;;;;;5080613;28;20439;-67
2023/12/13 14:13:16;;;;;;;2.70;0.98;;;;;;;;;;5099350;28;20058;-66
2023/12/13 14:16:57;;;;;;;3.08;0.70;;;;;;;;;;5084067;28;20039;-67
2023/12/13 14:20:38;;;;;;;4.43;0.98;;;;;;;;;;5074559;28;20519;-66
2023/12/13 14:24:20;;;;;;;10.77;0.80;;;;;;;;;;5086283;28;20484;-68
2023/12/13 14:28:00;;;;;;;2.55;0.80;;;;;;;;;;5082825;28;20059;-67
2023/12/13 14:31:40;;;;;;;3.75;1.05;;;;;;;;;;5079842;28;20136;-67
2023/12/13 14:35:25;;;;;;;3.80;1.15;;;;;;;;;;5080337;28;20054;-68
2023/12/13 14:39:05;;;;;;;4.90;1.10;;;;;;;;;;5088822;28;20048;-67
2023/12/13 14:42:45;;;;;;;4.70;1.13;;;;;;;;;;5082652;28;20415;-69
2023/12/13 14:46:26;;;;;;;5.05;1.30;;;;;;;;;;5086189;28;20067;-67
2023/12/13 14:50:07;;;;;;;4.82;1.13;;;;;;;;;;5082617;28;20060;-67
2023/12/13 14:53:50;;;;;;;2.15;0.90;;;;;;;;;;5079404;28;20123;-67
2023/12/13 14:57:28;;;;;;;6.40;0.90;;;;;;;;;;5083452;28;20203;-69
2023/12/13 15:01:08;;;;;;;5.32;1.17;;;;;;;;;;5086742;28;20108;-66
2023/12/13 15:04:50;;;;;;;3.83;1.48;;;;;;;;;;5080282;28;20135;-67
2023/12/13 15:08:32;;;;;;;3.97;1.00;;;;;;;;;;5069638;28;20075;-65
2023/12/13 15:12:12;;;;;;;2.00;0.90;;;;;;;;;;5081456;28;20085;-64
2023/12/13 15:15:53;;;;;;;7.55;0.95;;;;;;;;;;5082887;28;20044;-68
2023/12/13 15:19:34;;;;;;;4.97;0.77;;;;;;;;;;5079538;28;20072;-66
2023/12/13 15:23:16;;;;;;;8.40;1.10;;;;;;;;;;5078766;28;20518;-70
2023/12/13 15:26:55;;;;;;;3.58;0.90;;;;;;;;;;5080675;28;20132;-69
2023/12/13 15:30:36;;;;;;;4.18;1.55;;;;;;;;;;5076972;28;20338;-67
2023/12/13 15:34:18;;;;;;;7.97;1.38;;;;;;;;;;5077762;28;20036;-68
2023/12/13 15:37:58;;;;;;;11.07;1.80;;;;;;;;;;5076878;28;20145;-71
2023/12/13 15:40:59;;;;;;;6.85;1.80;;;;;;;;;;5078276;28;20086;-69
2023/12/13 15:43:25;;;;;;;6.65;1.50;;;;;;;;;;5083567;28;20044;-70
2023/12/13 15:46:31;;;;;;;5.68;1.42;;;;;;;;;;5080606;28;20052;-70
2023/12/13 15:50:11;;;;;;;6.55;1.27;;;;;;;;;;5083454;28;20504;-70
2023/12/13 15:53:21;;;;;;;3.95;1.10;;;;;;;;;;5074305;28;20090;-67
2023/12/13 15:56:30;;;;;;;4.45;1.10;;;;;;;;;;5079639;28;20048;-68
2023/12/13 16:00:11;;;;;;;4.53;1.60;;;;;;;;;;5080829;28;20052;-69
2023/12/13 16:03:53;;;;;;;3.03;1.10;;;;;;;;;;5082052;28;20044;-68
2023/12/13 16:07:33;;;;;;;7.72;1.08;;;;;;;;;;5078400;28;20047;-64
2023/12/13 16:11:14;;;;;;;4.60;0.90;;;;;;;;;;5079113;28;20377;-70
2023/12/13 16:15:01;;;;;;;3.60;0.98;;;;;;;;;;5078742;28;20048;-65
2023/12/13 16:18:39;;;;;;;3.38;0.80;;;;;;;;;;5077026;28;20039;-65
2023/12/13 16:22:20;;;;;;;5.38;1.05;;;;;;;;;;5076005;28;21016;-64
2023/12/13 16:26:00;;;;;;;4.78;0.98;;;;;;;;;;5091707;28;20745;-63
2023/12/13 16:29:41;;;;;;;4.43;0.80;;;;;;;;;;5083726;28;20111;-65
2023/12/13 16:33:24;;;;;;;4.80;1.02;;;;;;;;;;5079522;28;20572;-64
2023/12/13 16:37:04;;;;;;;8.68;1.35;;;;;;;;;;5075212;28;20048;-66
2023/12/13 16:40:46;;;;;;;6.90;1.40;;;;;;;;;;5072464;28;20514;-68
2023/12/13 16:44:26;;;;;;;2.75;1.50;;;;;;;;;;5086975;28;20043;-67
2023/12/13 16:48:06;;;;;;;8.50;1.35;;;;;;;;;;5087989;28;20048;-67
2023/12/13 16:51:50;;;;;;;7.13;1.42;;;;;;;;;;5084501;28;20390;-65
2023/12/13 16:55:29;;;;;;;7.90;1.27;;;;;;;;;;5087530;28;20643;-67
2023/12/13 16:59:11;;;;;;;4.90;1.27;;;;;;;;;;5083841;28;20079;-66
2023/12/13 17:02:54;;;;;;;6.65;1.23;;;;;;;;;;5100965;28;20062;-66
2023/12/13 17:06:32;;;;;;;16.45;2.03;;;;;;;;;;5087267;28;20139;-68
2023/12/13 17:10:14;;;;;;;6.35;1.48;;;;;;;;;;5088232;28;20089;-65
2023/12/13 17:13:56;;;;;;;4.63;1.70;;;;;;;;;;5085995;28;20063;-67
2023/12/13 17:17:36;;;;;;;6.75;1.45;;;;;;;;;;5087817;28;20052;-66
2023/12/13 17:21:17;;;;;;;2.75;1.20;;;;;;;;;;5080259;28;20070;-67
2023/12/13 17:25:00;;;;;;;3.40;1.38;;;;;;;;;;5069198;28;20052;-65
2023/12/13 17:28:42;;;;;;;7.35;1.23;;;;;;;;;;5083204;28;20127;-67
2023/12/13 17:32:23;;;;;;;8.07;1.40;;;;;;;;;;5078312;28;20416;-67
2023/12/13 17:36:04;;;;;;;10.38;1.60;;;;;;;;;;5084722;28;20063;-66
2023/12/13 17:39:44;;;;;;;5.25;1.60;;;;;;;;;;5084602;28;20061;-65
2023/12/13 17:43:24;;;;;;;6.97;1.63;;;;;;;;;;5072489;28;20371;-65
2023/12/13 17:47:06;;;;;;;5.88;1.38;;;;;;;;;;5085335;28;20044;-67
2023/12/13 17:50:45;;;;;;;7.13;1.85;;;;;;;;;;5080288;28;20101;-66
2023/12/13 17:54:27;;;;;;;4.72;1.40;;;;;;;;;;5078512;28;20065;-65
2023/12/13 17:58:06;;;;;;;9.77;1.55;;;;;;;;;;5080407;28;20044;-65
2023/12/13 18:01:47;;;;;;;8.98;1.35;;;;;;;;;;5090434;28;20155;-64
2023/12/13 18:05:28;;;;;;;8.93;1.33;;;;;;;;;;5085106;28;20448;-64
2023/12/13 18:09:09;;;;;;;2.83;1.40;;;;;;;;;;5078632;28;20051;-67
2023/12/13 18:12:48;;;;;;;5.93;1.40;;;;;;;;;;5082439;28;20363;-65
2023/12/13 18:16:29;;;;;;;9.52;1.70;;;;;;;;;;5085114;28;20185;-69
2023/12/13 18:20:10;;;;;;;5.57;1.42;;;;;;;;;;5087764;28;20036;-66
2023/12/13 18:23:51;;;;;;;6.30;1.70;;;;;;;;;;5082105;28;20140;-67
2023/12/13 18:27:31;;;;;;;4.15;1.40;;;;;;;;;;5084772;28;20352;-65
2023/12/13 18:31:11;;;;;;;2.65;1.25;;;;;;;;;;5094429;28;20059;-64
2023/12/13 18:34:52;;;;;;;6.95;1.50;;;;;;;;;;5082613;28;20047;-67
2023/12/13 18:38:32;;;;;;;5.53;1.42;;;;;;;;;;5084319;28;20048;-68
2023/12/13 18:42:13;;;;;;;4.25;1.38;;;;;;;;;;5076157;28;20048;-68
2023/12/13 18:45:54;;;;;;;15.63;1.45;;;;;;;;;;5086075;28;20047;-67
2023/12/13 18:49:35;;;;;;;5.70;1.30;;;;;;;;;;5091168;28;20076;-66
2023/12/13 18:53:15;;;;;;;4.32;1.40;;;;;;;;;;5078152;28;20884;-68
2023/12/13 18:56:56;;;;;;;5.18;1.27;;;;;;;;;;5089324;28;20060;-66
2023/12/13 19:00:37;;;;;;;4.53;1.50;;;;;;;;;;5085105;28;20036;-69
2023/12/13 19:04:17;;;;;;;3.78;1.58;;;;;;;;;;5096295;28;20047;-68
2023/12/13 19:08:02;;;;;;;3.28;1.27;;;;;;;;;;5085099;28;20044;-67
2023/12/13 19:11:41;;;;;;;8.00;1.50;;;;;;;;;;5084504;28;20047;-66
2023/12/13 19:15:21;;;;;;;3.25;1.45;;;;;;;;;;5074037;28;20063;-66
2023/12/13 19:19:02;;;;;;;8.55;2.00;;;;;;;;;;5083925;28;20051;-66
2023/12/13 19:22:44;;;;;;;8.48;2.08;;;;;;;;;;5086723;28;20416;-66
2023/12/13 19:26:39;;;;;;;7.30;2.20;;;;;;;;;;5084674;28;20077;-64
2023/12/13 19:30:20;;;;;;;11.30;2.60;;;;;;;;;;5080687;28;20052;-68
2023/12/13 19:34:02;;;;;;;5.13;2.30;;;;;;;;;;5081750;28;20047;-65
2023/12/13 19:37:42;;;;;;;7.38;2.10;;;;;;;;;;5084849;28;20079;-66
2023/12/13 19:41:27;;;;;;;8.15;2.10;;;;;;;;;;5082945;28;20495;-68
2023/12/13 19:45:09;;;;;;;5.45;1.90;;;;;;;;;;5076637;28;20117;-67
2023/12/13 19:48:50;;;;;;;6.35;1.70;;;;;;;;;;5074849;28;20363;-67
2023/12/13 19:52:31;;;;;;;5.10;2.10;;;;;;;;;;5084691;28;20036;-67
2023/12/13 19:56:13;;;;;;;7.07;2.05;;;;;;;;;;5074367;28;20079;-67
2023/12/13 19:59:55;;;;;;;5.53;1.90;;;;;;;;;;5080800;28;20135;-66
2023/12/13 20:03:36;;;;;;;3.75;1.48;;;;;;;;;;5080513;28;20079;-67
2023/12/13 20:07:18;;;;;;;6.57;2.05;;;;;;;;;;5079983;28;20051;-67
2023/12/13 20:11:00;;;;;;;6.05;1.75;;;;;;;;;;5071012;28;20090;-67
2023/12/13 20:14:40;;;;;;;6.32;1.90;;;;;;;;;;5079290;28;20542;-67
2023/12/13 20:18:22;;;;;;;4.07;1.88;;;;;;;;;;5085860;28;20152;-67
2023/12/13 20:22:01;;;;;;;6.82;1.50;;;;;;;;;;5082297;28;20040;-67
2023/12/13 20:25:43;;;;;;;7.35;1.60;;;;;;;;;;5086755;28;20056;-67
2023/12/13 20:29:25;;;;;;;4.50;1.20;;;;;;;;;;5085699;28;20062;-67
2023/12/13 20:33:06;;;;;;;3.28;1.50;;;;;;;;;;5090719;28;20054;-67
2023/12/13 20:36:48;;;;;;;2.28;1.23;;;;;;;;;;5090430;27;20036;-66
2023/12/13 20:40:29;;;;;;;5.47;1.42;;;;;;;;;;5086841;28;20059;-69
2023/12/13 20:44:12;;;;;;;9.07;3.10;;;;;;;;;;5083437;28;20074;-66
2023/12/13 20:47:50;;;;;;;4.22;1.55;;;;;;;;;;5082323;28;20051;-67
2023/12/13 20:51:30;;;;;;;4.47;1.55;;;;;;;;;;5074193;28;20293;-65
2023/12/13 20:55:12;;;;;;;5.03;1.40;;;;;;;;;;5086338;28;20073;-67
2023/12/13 20:58:52;;;;;;;6.93;1.23;;;;;;;;;;5079509;28;20047;-67
2023/12/13 21:02:33;;;;;;;4.45;1.40;;;;;;;;;;5081529;28;20043;-66
2023/12/13 21:06:16;;;;;;;2.60;1.48;;;;;;;;;;5075522;28;20044;-65
2023/12/13 21:09:56;;;;;;;3.20;1.50;;;;;;;;;;5088069;28;20058;-67
2023/12/13 21:13:37;;;;;;;3.95;1.50;;;;;;;;;;5098721;27;20522;-67
2023/12/13 21:17:17;;;;;;;3.45;1.20;;;;;;;;;;5082331;28;20052;-66
2023/12/13 21:20:58;;;;;;;4.15;1.35;;;;;;;;;;5081615;28;20127;-65
2023/12/13 21:24:40;;;;;;;4.32;1.58;;;;;;;;;;5083020;28;20048;-65
2023/12/13 21:28:20;;;;;;;3.25;1.50;;;;;;;;;;5089435;28;20075;-66
2023/12/13 21:32:00;;;;;;;2.67;1.38;;;;;;;;;;5086174;28;20058;-65
2023/12/13 21:35:42;;;;;;;2.53;1.30;;;;;;;;;;5080333;28;20397;-66
2023/12/13 21:39:23;;;;;;;2.72;1.42;;;;;;;;;;5087579;28;20077;-65
2023/12/13 21:43:02;;;;;;;2.17;1.10;;;;;;;;;;5086455;28;20048;-71
2023/12/13 21:46:42;;;;;;;6.18;1.92;;;;;;;;;;5082540;28;20557;-64
2023/12/13 21:50:24;;;;;;;3.70;1.40;;;;;;;;;;5097986;28;20058;-66
2023/12/13 21:54:08;;;;;;;5.22;1.35;;;;;;;;;;5092138;28;20077;-67
2023/12/13 21:57:48;;;;;;;6.55;1.48;;;;;;;;;;5078659;28;20039;-65